หน้าหลัก
METAR-TAF:

METAR-TAF

ท่าอากาศยาน :

Municipal_Airport

Socorro, นิวเม็กซิโก, สหรัฐอเมริกา

ละติจูด: 34-01N, ลองจิจูด: 106-54W, ความสูง: 1478 ม.

การสังเกตสภาพอากาศปัจจุบัน

รายงานได้ทำขึ้นเมื่อ 17 นาทีที่แล้ว ณ เวลา 11:55 UTC
ลมสงบ
อุณหภูมิ 12°C
ความชื้น 16%
ความกดอากาศ 1013 hPa
ทัศนวิสัย: 16.1 กม.
ท้องฟ้าแจ่มใส

METAR: KONM 251155Z AUTO 00000KT 10SM CLR 12/M13 A2992 RMK AO2 T01241127 10226 20112

เวลา: 06:12 (12:12 UTC)


TAF: หายไป

สังเกตการณ์สภาพอากาศและพยากรณ์อากาศของสนามบินมากกว่า 4000 แห่ง (รายงาน METAR และ TAF).

สถานีที่ดูได้จะแสดงไว้ด้วยจุดสีเหลืองและสีแดงบนแผนที่.

เลื่อนเมาส์ไปเหนือจุดเพื่อดูชื่อสถานี.

แล้วคลิกเพื่อดูสังเกตการณ์และการพยากรณ์สภาพอากาศ.

ในการเปลี่ยนแผนที่: คลิกที่ปุ่มสีเขียวที่มีกากบาทสีดำเพื่อซูมเข้า; ที่ปุ่มสีเขียวที่มีขีดเพื่อซูมออก; หรือที่ลูกศรสีเขียวเพื่อไปยังแผนที่ที่อยู่ติดกัน.


METAR-TAF: